sensor_id;sensor_type;location;lat;lon;timestamp;P1;durP1;ratioP1;P2;durP2;ratioP2
40355;SDS011;26061;50.044;19.930;2023-04-06T00:01:39;37.97;;;16.60;;
40355;SDS011;26061;50.044;19.930;2023-04-06T00:04:05;36.40;;;16.50;;
40355;SDS011;26061;50.044;19.930;2023-04-06T00:06:31;33.93;;;16.40;;
40355;SDS011;26061;50.044;19.930;2023-04-06T00:08:58;33.90;;;15.33;;
40355;SDS011;26061;50.044;19.930;2023-04-06T00:11:25;40.43;;;15.00;;
40355;SDS011;26061;50.044;19.930;2023-04-06T00:13:50;32.03;;;15.83;;
40355;SDS011;26061;50.044;19.930;2023-04-06T00:16:16;45.67;;;18.80;;
40355;SDS011;26061;50.044;19.930;2023-04-06T00:18:42;33.97;;;16.33;;
40355;SDS011;26061;50.044;19.930;2023-04-06T00:21:11;34.40;;;16.53;;
40355;SDS011;26061;50.044;19.930;2023-04-06T00:23:38;33.03;;;15.73;;
40355;SDS011;26061;50.044;19.930;2023-04-06T00:26:04;35.07;;;16.07;;
40355;SDS011;26061;50.044;19.930;2023-04-06T00:28:29;40.47;;;17.53;;
40355;SDS011;26061;50.044;19.930;2023-04-06T00:30:55;42.50;;;17.83;;
40355;SDS011;26061;50.044;19.930;2023-04-06T00:33:21;39.30;;;18.27;;
40355;SDS011;26061;50.044;19.930;2023-04-06T00:35:48;44.90;;;18.37;;
40355;SDS011;26061;50.044;19.930;2023-04-06T00:38:14;41.00;;;16.73;;
40355;SDS011;26061;50.044;19.930;2023-04-06T00:40:41;41.90;;;19.73;;
40355;SDS011;26061;50.044;19.930;2023-04-06T00:43:07;43.00;;;17.93;;
40355;SDS011;26061;50.044;19.930;2023-04-06T00:45:34;46.83;;;18.13;;
40355;SDS011;26061;50.044;19.930;2023-04-06T00:48:00;41.17;;;18.07;;
40355;SDS011;26061;50.044;19.930;2023-04-06T00:50:27;45.63;;;18.27;;
40355;SDS011;26061;50.044;19.930;2023-04-06T00:52:54;37.73;;;17.40;;
40355;SDS011;26061;50.044;19.930;2023-04-06T00:55:20;38.00;;;18.67;;
40355;SDS011;26061;50.044;19.930;2023-04-06T00:57:46;38.60;;;18.23;;
40355;SDS011;26061;50.044;19.930;2023-04-06T01:00:12;41.17;;;19.33;;
40355;SDS011;26061;50.044;19.930;2023-04-06T01:02:39;45.80;;;19.20;;
40355;SDS011;26061;50.044;19.930;2023-04-06T01:05:05;47.53;;;19.67;;
40355;SDS011;26061;50.044;19.930;2023-04-06T01:07:31;50.77;;;20.70;;
40355;SDS011;26061;50.044;19.930;2023-04-06T01:09:57;51.90;;;19.97;;
40355;SDS011;26061;50.044;19.930;2023-04-06T01:12:23;62.50;;;22.20;;
40355;SDS011;26061;50.044;19.930;2023-04-06T01:14:49;54.73;;;22.53;;
40355;SDS011;26061;50.044;19.930;2023-04-06T01:17:15;50.30;;;20.50;;
40355;SDS011;26061;50.044;19.930;2023-04-06T01:19:41;46.87;;;20.20;;
40355;SDS011;26061;50.044;19.930;2023-04-06T01:22:07;50.93;;;20.77;;
40355;SDS011;26061;50.044;19.930;2023-04-06T01:24:33;51.60;;;21.63;;
40355;SDS011;26061;50.044;19.930;2023-04-06T01:26:58;45.50;;;19.47;;
40355;SDS011;26061;50.044;19.930;2023-04-06T01:29:26;52.53;;;23.43;;
40355;SDS011;26061;50.044;19.930;2023-04-06T01:31:51;53.87;;;22.37;;
40355;SDS011;26061;50.044;19.930;2023-04-06T01:34:17;52.73;;;22.70;;
40355;SDS011;26061;50.044;19.930;2023-04-06T01:36:43;52.07;;;22.73;;
40355;SDS011;26061;50.044;19.930;2023-04-06T01:39:09;45.77;;;23.13;;
40355;SDS011;26061;50.044;19.930;2023-04-06T01:41:35;55.07;;;22.53;;
40355;SDS011;26061;50.044;19.930;2023-04-06T01:44:01;50.60;;;22.10;;
40355;SDS011;26061;50.044;19.930;2023-04-06T01:46:27;50.87;;;22.93;;
40355;SDS011;26061;50.044;19.930;2023-04-06T01:48:53;55.20;;;23.60;;
40355;SDS011;26061;50.044;19.930;2023-04-06T01:51:21;62.43;;;23.70;;
40355;SDS011;26061;50.044;19.930;2023-04-06T01:53:47;55.93;;;24.53;;
40355;SDS011;26061;50.044;19.930;2023-04-06T01:56:14;58.27;;;25.07;;
40355;SDS011;26061;50.044;19.930;2023-04-06T01:58:40;52.03;;;25.33;;
40355;SDS011;26061;50.044;19.930;2023-04-06T02:01:05;52.60;;;24.33;;
40355;SDS011;26061;50.044;19.930;2023-04-06T02:03:31;49.27;;;23.07;;
40355;SDS011;26061;50.044;19.930;2023-04-06T02:05:57;56.57;;;23.33;;
40355;SDS011;26061;50.044;19.930;2023-04-06T02:08:23;53.97;;;23.77;;
40355;SDS011;26061;50.044;19.930;2023-04-06T02:10:48;50.93;;;20.97;;
40355;SDS011;26061;50.044;19.930;2023-04-06T02:13:14;47.63;;;22.93;;
40355;SDS011;26061;50.044;19.930;2023-04-06T02:15:40;58.90;;;24.43;;
40355;SDS011;26061;50.044;19.930;2023-04-06T02:18:06;56.83;;;24.30;;
40355;SDS011;26061;50.044;19.930;2023-04-06T02:20:34;59.47;;;26.70;;
40355;SDS011;26061;50.044;19.930;2023-04-06T02:23:00;58.63;;;24.50;;
40355;SDS011;26061;50.044;19.930;2023-04-06T02:25:26;61.97;;;24.33;;
40355;SDS011;26061;50.044;19.930;2023-04-06T02:27:52;56.50;;;25.53;;
40355;SDS011;26061;50.044;19.930;2023-04-06T02:30:17;57.83;;;26.03;;
40355;SDS011;26061;50.044;19.930;2023-04-06T02:32:43;63.93;;;25.77;;
40355;SDS011;26061;50.044;19.930;2023-04-06T02:35:09;61.67;;;25.97;;
40355;SDS011;26061;50.044;19.930;2023-04-06T02:37:35;57.23;;;27.70;;
40355;SDS011;26061;50.044;19.930;2023-04-06T02:40:00;61.03;;;28.63;;
40355;SDS011;26061;50.044;19.930;2023-04-06T02:42:26;68.63;;;29.17;;
40355;SDS011;26061;50.044;19.930;2023-04-06T02:44:52;57.23;;;27.00;;
40355;SDS011;26061;50.044;19.930;2023-04-06T02:47:17;68.67;;;28.50;;
40355;SDS011;26061;50.044;19.930;2023-04-06T02:49:43;63.30;;;28.30;;
40355;SDS011;26061;50.044;19.930;2023-04-06T02:52:09;63.87;;;28.97;;
40355;SDS011;26061;50.044;19.930;2023-04-06T02:54:34;74.53;;;29.17;;
40355;SDS011;26061;50.044;19.930;2023-04-06T02:57:00;70.07;;;29.80;;
40355;SDS011;26061;50.044;19.930;2023-04-06T02:59:26;71.37;;;29.53;;
40355;SDS011;26061;50.044;19.930;2023-04-06T03:01:52;71.30;;;30.60;;
40355;SDS011;26061;50.044;19.930;2023-04-06T03:04:17;79.20;;;30.73;;
40355;SDS011;26061;50.044;19.930;2023-04-06T03:06:43;75.37;;;31.03;;
40355;SDS011;26061;50.044;19.930;2023-04-06T03:09:09;68.90;;;30.10;;
40355;SDS011;26061;50.044;19.930;2023-04-06T03:11:34;72.10;;;30.57;;
40355;SDS011;26061;50.044;19.930;2023-04-06T03:14:00;72.10;;;28.97;;
40355;SDS011;26061;50.044;19.930;2023-04-06T03:16:26;71.00;;;29.70;;
40355;SDS011;26061;50.044;19.930;2023-04-06T03:18:51;76.70;;;30.93;;
40355;SDS011;26061;50.044;19.930;2023-04-06T03:21:17;70.67;;;32.00;;
40355;SDS011;26061;50.044;19.930;2023-04-06T03:23:44;72.27;;;30.20;;
40355;SDS011;26061;50.044;19.930;2023-04-06T03:26:10;73.73;;;31.07;;
40355;SDS011;26061;50.044;19.930;2023-04-06T03:28:36;65.67;;;29.60;;
40355;SDS011;26061;50.044;19.930;2023-04-06T03:31:02;63.97;;;29.30;;
40355;SDS011;26061;50.044;19.930;2023-04-06T03:33:28;59.37;;;27.40;;
40355;SDS011;26061;50.044;19.930;2023-04-06T03:35:54;67.53;;;30.23;;
40355;SDS011;26061;50.044;19.930;2023-04-06T03:38:20;64.43;;;29.57;;
40355;SDS011;26061;50.044;19.930;2023-04-06T03:40:45;74.07;;;30.30;;
40355;SDS011;26061;50.044;19.930;2023-04-06T03:43:11;62.73;;;31.23;;
40355;SDS011;26061;50.044;19.930;2023-04-06T03:45:37;71.53;;;31.90;;
40355;SDS011;26061;50.044;19.930;2023-04-06T03:48:03;79.10;;;32.03;;
40355;SDS011;26061;50.044;19.930;2023-04-06T03:50:29;70.73;;;31.73;;
40355;SDS011;26061;50.044;19.930;2023-04-06T03:52:55;65.80;;;31.30;;
40355;SDS011;26061;50.044;19.930;2023-04-06T03:55:20;63.77;;;31.33;;
40355;SDS011;26061;50.044;19.930;2023-04-06T03:57:46;65.07;;;31.00;;
40355;SDS011;26061;50.044;19.930;2023-04-06T04:00:12;68.63;;;30.43;;
40355;SDS011;26061;50.044;19.930;2023-04-06T04:02:38;72.27;;;29.70;;
40355;SDS011;26061;50.044;19.930;2023-04-06T04:05:04;70.63;;;31.33;;
40355;SDS011;26061;50.044;19.930;2023-04-06T04:07:30;68.57;;;31.80;;
40355;SDS011;26061;50.044;19.930;2023-04-06T04:09:56;65.80;;;31.43;;
40355;SDS011;26061;50.044;19.930;2023-04-06T04:12:21;72.90;;;31.80;;
40355;SDS011;26061;50.044;19.930;2023-04-06T04:14:47;68.47;;;30.27;;
40355;SDS011;26061;50.044;19.930;2023-04-06T04:17:13;74.87;;;32.30;;
40355;SDS011;26061;50.044;19.930;2023-04-06T04:19:39;75.97;;;32.40;;
40355;SDS011;26061;50.044;19.930;2023-04-06T04:22:04;65.80;;;30.43;;
40355;SDS011;26061;50.044;19.930;2023-04-06T04:24:31;66.73;;;30.27;;
40355;SDS011;26061;50.044;19.930;2023-04-06T04:26:57;65.70;;;30.53;;
40355;SDS011;26061;50.044;19.930;2023-04-06T04:29:23;69.40;;;33.33;;
40355;SDS011;26061;50.044;19.930;2023-04-06T04:31:49;77.00;;;31.10;;
40355;SDS011;26061;50.044;19.930;2023-04-06T04:34:15;66.40;;;29.03;;
40355;SDS011;26061;50.044;19.930;2023-04-06T04:36:41;66.80;;;31.43;;
40355;SDS011;26061;50.044;19.930;2023-04-06T04:39:07;70.03;;;30.80;;
40355;SDS011;26061;50.044;19.930;2023-04-06T04:41:33;83.20;;;36.23;;
40355;SDS011;26061;50.044;19.930;2023-04-06T04:43:59;78.27;;;35.10;;
40355;SDS011;26061;50.044;19.930;2023-04-06T04:46:25;86.73;;;36.37;;
40355;SDS011;26061;50.044;19.930;2023-04-06T04:48:51;81.50;;;34.20;;
40355;SDS011;26061;50.044;19.930;2023-04-06T04:51:16;71.73;;;31.30;;
40355;SDS011;26061;50.044;19.930;2023-04-06T04:53:42;73.67;;;31.07;;
40355;SDS011;26061;50.044;19.930;2023-04-06T04:56:07;68.30;;;30.60;;
40355;SDS011;26061;50.044;19.930;2023-04-06T04:58:33;66.57;;;31.40;;
40355;SDS011;26061;50.044;19.930;2023-04-06T05:00:59;71.93;;;33.20;;
40355;SDS011;26061;50.044;19.930;2023-04-06T05:03:26;71.13;;;32.73;;
40355;SDS011;26061;50.044;19.930;2023-04-06T05:05:52;72.83;;;34.13;;
40355;SDS011;26061;50.044;19.930;2023-04-06T05:08:18;81.30;;;35.63;;
40355;SDS011;26061;50.044;19.930;2023-04-06T05:10:43;80.17;;;36.23;;
40355;SDS011;26061;50.044;19.930;2023-04-06T05:13:10;81.17;;;38.33;;
40355;SDS011;26061;50.044;19.930;2023-04-06T05:15:36;81.43;;;40.33;;
40355;SDS011;26061;50.044;19.930;2023-04-06T05:18:05;95.57;;;40.93;;
40355;SDS011;26061;50.044;19.930;2023-04-06T05:20:32;94.47;;;43.23;;
40355;SDS011;26061;50.044;19.930;2023-04-06T05:22:58;86.67;;;38.33;;
40355;SDS011;26061;50.044;19.930;2023-04-06T05:25:23;89.33;;;40.27;;
40355;SDS011;26061;50.044;19.930;2023-04-06T05:27:50;85.47;;;41.37;;
40355;SDS011;26061;50.044;19.930;2023-04-06T05:30:15;92.97;;;45.07;;
40355;SDS011;26061;50.044;19.930;2023-04-06T05:32:41;109.73;;;47.97;;
40355;SDS011;26061;50.044;19.930;2023-04-06T05:35:09;111.70;;;47.63;;
40355;SDS011;26061;50.044;19.930;2023-04-06T05:37:36;97.53;;;45.70;;
40355;SDS011;26061;50.044;19.930;2023-04-06T05:40:01;90.73;;;42.97;;
40355;SDS011;26061;50.044;19.930;2023-04-06T05:42:28;85.90;;;41.33;;
40355;SDS011;26061;50.044;19.930;2023-04-06T05:45:01;91.17;;;40.40;;
40355;SDS011;26061;50.044;19.930;2023-04-06T05:47:27;94.97;;;42.23;;
40355;SDS011;26061;50.044;19.930;2023-04-06T05:49:53;93.43;;;41.17;;
40355;SDS011;26061;50.044;19.930;2023-04-06T05:52:19;93.30;;;42.27;;
40355;SDS011;26061;50.044;19.930;2023-04-06T05:54:44;91.90;;;42.67;;
40355;SDS011;26061;50.044;19.930;2023-04-06T05:57:10;113.17;;;44.60;;
40355;SDS011;26061;50.044;19.930;2023-04-06T05:59:37;117.67;;;48.70;;
40355;SDS011;26061;50.044;19.930;2023-04-06T06:02:03;126.07;;;49.33;;
40355;SDS011;26061;50.044;19.930;2023-04-06T06:04:29;127.20;;;54.50;;
40355;SDS011;26061;50.044;19.930;2023-04-06T06:06:56;143.33;;;59.97;;
40355;SDS011;26061;50.044;19.930;2023-04-06T06:09:22;183.57;;;74.23;;
40355;SDS011;26061;50.044;19.930;2023-04-06T06:11:48;196.57;;;76.50;;
40355;SDS011;26061;50.044;19.930;2023-04-06T06:14:14;147.37;;;62.40;;
40355;SDS011;26061;50.044;19.930;2023-04-06T06:16:40;135.37;;;57.43;;
40355;SDS011;26061;50.044;19.930;2023-04-06T06:19:06;120.63;;;52.83;;
40355;SDS011;26061;50.044;19.930;2023-04-06T06:21:32;122.73;;;55.03;;
40355;SDS011;26061;50.044;19.930;2023-04-06T06:23:57;118.40;;;50.33;;
40355;SDS011;26061;50.044;19.930;2023-04-06T06:26:23;118.27;;;48.87;;
40355;SDS011;26061;50.044;19.930;2023-04-06T06:28:49;107.50;;;45.40;;
40355;SDS011;26061;50.044;19.930;2023-04-06T06:31:15;113.57;;;47.97;;
40355;SDS011;26061;50.044;19.930;2023-04-06T06:33:41;109.30;;;46.50;;
40355;SDS011;26061;50.044;19.930;2023-04-06T06:36:07;100.90;;;41.47;;
40355;SDS011;26061;50.044;19.930;2023-04-06T06:38:32;102.70;;;43.77;;
40355;SDS011;26061;50.044;19.930;2023-04-06T06:40:58;97.17;;;42.37;;
40355;SDS011;26061;50.044;19.930;2023-04-06T06:43:24;113.80;;;51.27;;
40355;SDS011;26061;50.044;19.930;2023-04-06T06:45:50;91.50;;;46.13;;
40355;SDS011;26061;50.044;19.930;2023-04-06T06:48:15;86.80;;;41.03;;
40355;SDS011;26061;50.044;19.930;2023-04-06T06:50:41;73.30;;;36.17;;
40355;SDS011;26061;50.044;19.930;2023-04-06T06:53:07;82.73;;;41.40;;
40355;SDS011;26061;50.044;19.930;2023-04-06T06:55:33;68.27;;;36.07;;
40355;SDS011;26061;50.044;19.930;2023-04-06T06:57:58;64.57;;;32.17;;
40355;SDS011;26061;50.044;19.930;2023-04-06T07:00:24;63.00;;;30.43;;
40355;SDS011;26061;50.044;19.930;2023-04-06T07:02:50;61.57;;;28.83;;
40355;SDS011;26061;50.044;19.930;2023-04-06T07:05:15;56.40;;;28.87;;
40355;SDS011;26061;50.044;19.930;2023-04-06T07:07:41;51.80;;;25.23;;
40355;SDS011;26061;50.044;19.930;2023-04-06T07:10:07;49.90;;;24.60;;
40355;SDS011;26061;50.044;19.930;2023-04-06T07:12:33;43.77;;;22.57;;
40355;SDS011;26061;50.044;19.930;2023-04-06T07:14:59;40.20;;;21.10;;
40355;SDS011;26061;50.044;19.930;2023-04-06T07:17:25;44.67;;;20.60;;
40355;SDS011;26061;50.044;19.930;2023-04-06T07:19:50;35.70;;;19.63;;
40355;SDS011;26061;50.044;19.930;2023-04-06T07:22:16;33.30;;;18.17;;
40355;SDS011;26061;50.044;19.930;2023-04-06T07:24:42;37.00;;;19.60;;
40355;SDS011;26061;50.044;19.930;2023-04-06T07:27:08;35.67;;;17.43;;
40355;SDS011;26061;50.044;19.930;2023-04-06T07:29:33;37.47;;;17.93;;
40355;SDS011;26061;50.044;19.930;2023-04-06T07:32:02;33.77;;;17.50;;
40355;SDS011;26061;50.044;19.930;2023-04-06T07:34:28;30.03;;;15.10;;
40355;SDS011;26061;50.044;19.930;2023-04-06T07:36:54;26.87;;;15.07;;
40355;SDS011;26061;50.044;19.930;2023-04-06T07:39:19;32.83;;;15.53;;
40355;SDS011;26061;50.044;19.930;2023-04-06T07:41:45;27.43;;;13.63;;
40355;SDS011;26061;50.044;19.930;2023-04-06T07:44:11;25.30;;;13.30;;
40355;SDS011;26061;50.044;19.930;2023-04-06T07:46:37;29.07;;;12.07;;
40355;SDS011;26061;50.044;19.930;2023-04-06T07:49:02;25.00;;;11.97;;
40355;SDS011;26061;50.044;19.930;2023-04-06T07:51:29;21.10;;;11.37;;
40355;SDS011;26061;50.044;19.930;2023-04-06T07:53:54;21.57;;;11.40;;
40355;SDS011;26061;50.044;19.930;2023-04-06T07:56:20;18.60;;;10.63;;
40355;SDS011;26061;50.044;19.930;2023-04-06T07:58:46;24.40;;;11.93;;
40355;SDS011;26061;50.044;19.930;2023-04-06T08:01:12;24.67;;;12.07;;
40355;SDS011;26061;50.044;19.930;2023-04-06T08:03:38;20.40;;;11.53;;
40355;SDS011;26061;50.044;19.930;2023-04-06T08:06:05;19.70;;;10.87;;
40355;SDS011;26061;50.044;19.930;2023-04-06T08:08:31;23.70;;;11.50;;
40355;SDS011;26061;50.044;19.930;2023-04-06T08:10:57;23.33;;;10.90;;
40355;SDS011;26061;50.044;19.930;2023-04-06T08:13:23;21.10;;;11.50;;
40355;SDS011;26061;50.044;19.930;2023-04-06T08:15:49;20.80;;;11.90;;
40355;SDS011;26061;50.044;19.930;2023-04-06T08:18:14;26.23;;;13.27;;
40355;SDS011;26061;50.044;19.930;2023-04-06T08:20:40;19.23;;;10.40;;
40355;SDS011;26061;50.044;19.930;2023-04-06T08:23:06;17.23;;;9.73;;
40355;SDS011;26061;50.044;19.930;2023-04-06T08:25:33;16.70;;;9.37;;
40355;SDS011;26061;50.044;19.930;2023-04-06T08:28:00;20.23;;;8.87;;
40355;SDS011;26061;50.044;19.930;2023-04-06T08:30:27;15.97;;;8.20;;
40355;SDS011;26061;50.044;19.930;2023-04-06T08:32:53;15.80;;;8.10;;
40355;SDS011;26061;50.044;19.930;2023-04-06T08:35:18;13.00;;;7.30;;
40355;SDS011;26061;50.044;19.930;2023-04-06T08:37:44;13.37;;;7.43;;
40355;SDS011;26061;50.044;19.930;2023-04-06T08:40:10;10.33;;;6.20;;
40355;SDS011;26061;50.044;19.930;2023-04-06T08:42:39;15.03;;;6.60;;
40355;SDS011;26061;50.044;19.930;2023-04-06T08:45:09;14.93;;;7.10;;
40355;SDS011;26061;50.044;19.930;2023-04-06T08:47:35;12.83;;;6.97;;
40355;SDS011;26061;50.044;19.930;2023-04-06T08:50:04;13.03;;;7.07;;
40355;SDS011;26061;50.044;19.930;2023-04-06T08:52:31;11.53;;;6.13;;
40355;SDS011;26061;50.044;19.930;2023-04-06T08:54:59;10.20;;;5.57;;
40355;SDS011;26061;50.044;19.930;2023-04-06T08:57:25;11.10;;;5.43;;
40355;SDS011;26061;50.044;19.930;2023-04-06T08:59:51;10.43;;;5.17;;
40355;SDS011;26061;50.044;19.930;2023-04-06T09:02:19;8.63;;;5.60;;
40355;SDS011;26061;50.044;19.930;2023-04-06T09:04:47;9.13;;;5.37;;
40355;SDS011;26061;50.044;19.930;2023-04-06T09:07:15;7.83;;;4.90;;
40355;SDS011;26061;50.044;19.930;2023-04-06T09:09:41;8.23;;;5.33;;
40355;SDS011;26061;50.044;19.930;2023-04-06T09:15:17;7.30;;;4.00;;
40355;SDS011;26061;50.044;19.930;2023-04-06T09:17:46;8.87;;;5.20;;
40355;SDS011;26061;50.044;19.930;2023-04-06T09:20:12;6.10;;;4.10;;
40355;SDS011;26061;50.044;19.930;2023-04-06T09:22:38;9.43;;;4.30;;
40355;SDS011;26061;50.044;19.930;2023-04-06T09:25:05;6.07;;;4.10;;
40355;SDS011;26061;50.044;19.930;2023-04-06T09:27:37;7.77;;;4.83;;
40355;SDS011;26061;50.044;19.930;2023-04-06T09:30:07;6.30;;;3.80;;
40355;SDS011;26061;50.044;19.930;2023-04-06T09:35:30;6.80;;;4.57;;
40355;SDS011;26061;50.044;19.930;2023-04-06T09:37:57;6.53;;;3.77;;
40355;SDS011;26061;50.044;19.930;2023-04-06T09:40:23;8.33;;;4.60;;
40355;SDS011;26061;50.044;19.930;2023-04-06T09:42:49;5.57;;;4.20;;
40355;SDS011;26061;50.044;19.930;2023-04-06T09:45:18;8.33;;;4.97;;
40355;SDS011;26061;50.044;19.930;2023-04-06T09:47:44;5.30;;;4.33;;
40355;SDS011;26061;50.044;19.930;2023-04-06T09:50:12;14.57;;;5.83;;
40355;SDS011;26061;50.044;19.930;2023-04-06T09:52:48;5.93;;;4.47;;
40355;SDS011;26061;50.044;19.930;2023-04-06T09:58:16;8.93;;;5.27;;
40355;SDS011;26061;50.044;19.930;2023-04-06T10:00:48;5.57;;;4.37;;
40355;SDS011;26061;50.044;19.930;2023-04-06T10:03:43;9.70;;;5.00;;
40355;SDS011;26061;50.044;19.930;2023-04-06T10:06:15;7.57;;;4.73;;
40355;SDS011;26061;50.044;19.930;2023-04-06T10:08:46;11.20;;;5.70;;
40355;SDS011;26061;50.044;19.930;2023-04-06T10:11:14;9.17;;;5.10;;
40355;SDS011;26061;50.044;19.930;2023-04-06T10:13:41;5.63;;;4.57;;
40355;SDS011;26061;50.044;19.930;2023-04-06T10:16:07;6.70;;;4.40;;
40355;SDS011;26061;50.044;19.930;2023-04-06T10:18:33;8.23;;;4.70;;
40355;SDS011;26061;50.044;19.930;2023-04-06T10:21:11;7.17;;;5.20;;
40355;SDS011;26061;50.044;19.930;2023-04-06T10:23:41;7.93;;;4.97;;
40355;SDS011;26061;50.044;19.930;2023-04-06T10:26:19;8.00;;;5.13;;
40355;SDS011;26061;50.044;19.930;2023-04-06T10:28:46;10.97;;;4.97;;
40355;SDS011;26061;50.044;19.930;2023-04-06T10:31:14;8.60;;;5.70;;
40355;SDS011;26061;50.044;19.930;2023-04-06T10:33:40;14.53;;;5.53;;
40355;SDS011;26061;50.044;19.930;2023-04-06T10:39:03;9.30;;;5.57;;
40355;SDS011;26061;50.044;19.930;2023-04-06T10:41:48;8.57;;;5.43;;
40355;SDS011;26061;50.044;19.930;2023-04-06T10:44:19;14.30;;;7.07;;
40355;SDS011;26061;50.044;19.930;2023-04-06T10:46:53;7.50;;;5.20;;
40355;SDS011;26061;50.044;19.930;2023-04-06T10:49:22;10.23;;;5.23;;
40355;SDS011;26061;50.044;19.930;2023-04-06T10:51:53;6.03;;;4.23;;
40355;SDS011;26061;50.044;19.930;2023-04-06T10:54:20;9.07;;;5.47;;
40355;SDS011;26061;50.044;19.930;2023-04-06T10:56:49;8.20;;;5.20;;
40355;SDS011;26061;50.044;19.930;2023-04-06T10:59:18;6.97;;;3.67;;
40355;SDS011;26061;50.044;19.930;2023-04-06T11:01:46;10.60;;;4.57;;
40355;SDS011;26061;50.044;19.930;2023-04-06T11:04:14;7.33;;;4.57;;
40355;SDS011;26061;50.044;19.930;2023-04-06T11:06:41;5.40;;;4.10;;
40355;SDS011;26061;50.044;19.930;2023-04-06T11:09:07;7.67;;;4.60;;
40355;SDS011;26061;50.044;19.930;2023-04-06T11:11:38;7.67;;;4.20;;
40355;SDS011;26061;50.044;19.930;2023-04-06T11:14:04;11.40;;;6.63;;
40355;SDS011;26061;50.044;19.930;2023-04-06T11:16:30;7.87;;;5.47;;
40355;SDS011;26061;50.044;19.930;2023-04-06T11:19:04;8.53;;;5.70;;
40355;SDS011;26061;50.044;19.930;2023-04-06T11:21:38;9.20;;;5.50;;
40355;SDS011;26061;50.044;19.930;2023-04-06T11:24:10;6.60;;;4.03;;
40355;SDS011;26061;50.044;19.930;2023-04-06T11:29:15;8.60;;;4.90;;
40355;SDS011;26061;50.044;19.930;2023-04-06T11:31:42;7.73;;;4.83;;
40355;SDS011;26061;50.044;19.930;2023-04-06T11:34:36;9.50;;;4.50;;
40355;SDS011;26061;50.044;19.930;2023-04-06T11:37:06;6.40;;;4.43;;
40355;SDS011;26061;50.044;19.930;2023-04-06T11:39:40;7.03;;;4.87;;
40355;SDS011;26061;50.044;19.930;2023-04-06T11:42:08;9.83;;;5.00;;
40355;SDS011;26061;50.044;19.930;2023-04-06T11:44:38;7.77;;;4.83;;
40355;SDS011;26061;50.044;19.930;2023-04-06T11:47:14;6.83;;;4.70;;
40355;SDS011;26061;50.044;19.930;2023-04-06T11:49:41;6.87;;;4.50;;
40355;SDS011;26061;50.044;19.930;2023-04-06T11:52:14;8.63;;;5.27;;
40355;SDS011;26061;50.044;19.930;2023-04-06T11:54:45;8.13;;;4.77;;
40355;SDS011;26061;50.044;19.930;2023-04-06T11:57:12;8.73;;;6.13;;
40355;SDS011;26061;50.044;19.930;2023-04-06T11:59:38;8.70;;;5.57;;
40355;SDS011;26061;50.044;19.930;2023-04-06T12:02:04;9.57;;;5.00;;
40355;SDS011;26061;50.044;19.930;2023-04-06T12:04:31;7.60;;;5.27;;
40355;SDS011;26061;50.044;19.930;2023-04-06T12:06:57;11.57;;;5.67;;
40355;SDS011;26061;50.044;19.930;2023-04-06T12:09:23;7.33;;;5.10;;
40355;SDS011;26061;50.044;19.930;2023-04-06T12:11:49;8.17;;;4.80;;
40355;SDS011;26061;50.044;19.930;2023-04-06T12:14:14;7.67;;;5.60;;
40355;SDS011;26061;50.044;19.930;2023-04-06T12:16:41;8.83;;;5.70;;
40355;SDS011;26061;50.044;19.930;2023-04-06T12:19:07;9.53;;;5.47;;
40355;SDS011;26061;50.044;19.930;2023-04-06T12:21:33;10.80;;;5.67;;
40355;SDS011;26061;50.044;19.930;2023-04-06T12:24:02;10.30;;;6.33;;
40355;SDS011;26061;50.044;19.930;2023-04-06T12:26:29;8.87;;;6.20;;
40355;SDS011;26061;50.044;19.930;2023-04-06T12:28:56;11.67;;;6.30;;
40355;SDS011;26061;50.044;19.930;2023-04-06T12:31:22;10.30;;;6.40;;
40355;SDS011;26061;50.044;19.930;2023-04-06T12:33:50;9.10;;;6.70;;
40355;SDS011;26061;50.044;19.930;2023-04-06T12:36:17;13.03;;;6.73;;
40355;SDS011;26061;50.044;19.930;2023-04-06T12:38:46;10.87;;;6.13;;
40355;SDS011;26061;50.044;19.930;2023-04-06T12:41:13;8.83;;;5.83;;
40355;SDS011;26061;50.044;19.930;2023-04-06T12:43:40;11.67;;;6.67;;
40355;SDS011;26061;50.044;19.930;2023-04-06T12:46:07;8.13;;;5.70;;
40355;SDS011;26061;50.044;19.930;2023-04-06T12:48:33;9.63;;;6.53;;
40355;SDS011;26061;50.044;19.930;2023-04-06T12:51:00;14.07;;;7.17;;
40355;SDS011;26061;50.044;19.930;2023-04-06T12:53:27;10.60;;;5.70;;
40355;SDS011;26061;50.044;19.930;2023-04-06T12:55:54;7.43;;;5.20;;
40355;SDS011;26061;50.044;19.930;2023-04-06T12:58:20;9.53;;;5.47;;
40355;SDS011;26061;50.044;19.930;2023-04-06T13:00:47;10.60;;;6.20;;
40355;SDS011;26061;50.044;19.930;2023-04-06T13:03:13;7.60;;;5.90;;
40355;SDS011;26061;50.044;19.930;2023-04-06T13:05:45;10.13;;;5.73;;
40355;SDS011;26061;50.044;19.930;2023-04-06T13:08:12;9.73;;;6.13;;
40355;SDS011;26061;50.044;19.930;2023-04-06T13:10:49;11.80;;;7.97;;
40355;SDS011;26061;50.044;19.930;2023-04-06T13:13:17;11.23;;;6.87;;
40355;SDS011;26061;50.044;19.930;2023-04-06T13:15:43;8.87;;;5.80;;
40355;SDS011;26061;50.044;19.930;2023-04-06T13:18:10;8.30;;;5.17;;
40355;SDS011;26061;50.044;19.930;2023-04-06T13:20:36;9.97;;;5.60;;
40355;SDS011;26061;50.044;19.930;2023-04-06T13:23:01;7.27;;;5.17;;
40355;SDS011;26061;50.044;19.930;2023-04-06T13:25:27;11.83;;;5.33;;
40355;SDS011;26061;50.044;19.930;2023-04-06T13:27:54;9.90;;;6.70;;
40355;SDS011;26061;50.044;19.930;2023-04-06T13:30:20;12.00;;;7.23;;
40355;SDS011;26061;50.044;19.930;2023-04-06T13:32:45;11.43;;;6.90;;
40355;SDS011;26061;50.044;19.930;2023-04-06T13:35:11;8.97;;;5.63;;
40355;SDS011;26061;50.044;19.930;2023-04-06T13:37:37;10.47;;;5.70;;
40355;SDS011;26061;50.044;19.930;2023-04-06T13:40:03;9.67;;;5.80;;
40355;SDS011;26061;50.044;19.930;2023-04-06T13:42:32;8.40;;;6.07;;
40355;SDS011;26061;50.044;19.930;2023-04-06T13:45:00;9.77;;;6.17;;
40355;SDS011;26061;50.044;19.930;2023-04-06T13:47:26;9.97;;;6.23;;
40355;SDS011;26061;50.044;19.930;2023-04-06T13:49:53;20.80;;;9.27;;
40355;SDS011;26061;50.044;19.930;2023-04-06T13:52:20;17.10;;;7.63;;
40355;SDS011;26061;50.044;19.930;2023-04-06T13:54:46;11.83;;;6.13;;
40355;SDS011;26061;50.044;19.930;2023-04-06T13:57:12;14.00;;;7.40;;
40355;SDS011;26061;50.044;19.930;2023-04-06T13:59:38;21.13;;;10.03;;
40355;SDS011;26061;50.044;19.930;2023-04-06T14:02:05;73.63;;;20.80;;
40355;SDS011;26061;50.044;19.930;2023-04-06T14:04:32;46.50;;;15.20;;
40355;SDS011;26061;50.044;19.930;2023-04-06T14:06:59;54.50;;;15.60;;
40355;SDS011;26061;50.044;19.930;2023-04-06T14:09:26;33.07;;;13.33;;
40355;SDS011;26061;50.044;19.930;2023-04-06T14:11:52;15.40;;;8.77;;
40355;SDS011;26061;50.044;19.930;2023-04-06T14:14:18;14.67;;;8.17;;
40355;SDS011;26061;50.044;19.930;2023-04-06T14:16:44;15.13;;;8.97;;
40355;SDS011;26061;50.044;19.930;2023-04-06T14:19:10;15.53;;;9.90;;
40355;SDS011;26061;50.044;19.930;2023-04-06T14:21:37;18.33;;;9.90;;
40355;SDS011;26061;50.044;19.930;2023-04-06T14:24:05;17.17;;;9.93;;
40355;SDS011;26061;50.044;19.930;2023-04-06T14:26:32;17.33;;;10.57;;
40355;SDS011;26061;50.044;19.930;2023-04-06T14:28:58;16.30;;;10.60;;